RJSO(METAR)
02/20 20:00
METAR RJSO 201100Z VRB02KT 7000 -RA FEW006 BKN012 OVC015 03/01 Q1013
RMK 2ST006 5ST012 8SC015 A2992=
戻る
トップページへ戻る
IMOC Co,.Ltd.